sensor_id;sensor_type;location;lat;lon;timestamp;P1;durP1;ratioP1;P2;durP2;ratioP2
2772;SDS011;1394;47.044;15.744;2023-02-24T00:02:13;34.03;;;11.50;;
2772;SDS011;1394;47.044;15.744;2023-02-24T00:04:43;33.63;;;11.73;;
2772;SDS011;1394;47.044;15.744;2023-02-24T00:07:15;30.23;;;9.50;;
2772;SDS011;1394;47.044;15.744;2023-02-24T00:09:44;33.00;;;11.40;;
2772;SDS011;1394;47.044;15.744;2023-02-24T00:12:15;31.83;;;10.23;;
2772;SDS011;1394;47.044;15.744;2023-02-24T00:14:44;31.17;;;9.63;;
2772;SDS011;1394;47.044;15.744;2023-02-24T00:17:11;31.43;;;9.40;;
2772;SDS011;1394;47.044;15.744;2023-02-24T00:19:39;32.67;;;11.57;;
2772;SDS011;1394;47.044;15.744;2023-02-24T00:22:06;31.13;;;10.10;;
2772;SDS011;1394;47.044;15.744;2023-02-24T00:24:34;33.67;;;11.30;;
2772;SDS011;1394;47.044;15.744;2023-02-24T00:27:02;31.33;;;10.17;;
2772;SDS011;1394;47.044;15.744;2023-02-24T00:29:33;32.20;;;10.53;;
2772;SDS011;1394;47.044;15.744;2023-02-24T00:32:01;31.67;;;9.67;;
2772;SDS011;1394;47.044;15.744;2023-02-24T00:34:32;32.60;;;10.60;;
2772;SDS011;1394;47.044;15.744;2023-02-24T00:36:59;31.00;;;9.50;;
2772;SDS011;1394;47.044;15.744;2023-02-24T00:39:27;33.43;;;11.90;;
2772;SDS011;1394;47.044;15.744;2023-02-24T00:41:57;33.13;;;10.73;;
2772;SDS011;1394;47.044;15.744;2023-02-24T00:44:30;32.20;;;10.60;;
2772;SDS011;1394;47.044;15.744;2023-02-24T00:46:59;31.57;;;10.20;;
2772;SDS011;1394;47.044;15.744;2023-02-24T00:49:27;33.37;;;11.53;;
2772;SDS011;1394;47.044;15.744;2023-02-24T00:51:54;32.67;;;9.80;;
2772;SDS011;1394;47.044;15.744;2023-02-24T00:54:21;31.63;;;9.57;;
2772;SDS011;1394;47.044;15.744;2023-02-24T00:56:52;31.50;;;9.73;;
2772;SDS011;1394;47.044;15.744;2023-02-24T00:59:19;31.80;;;9.70;;
2772;SDS011;1394;47.044;15.744;2023-02-24T01:01:49;30.67;;;9.53;;
2772;SDS011;1394;47.044;15.744;2023-02-24T01:04:18;32.03;;;10.50;;
2772;SDS011;1394;47.044;15.744;2023-02-24T01:06:46;31.53;;;9.83;;
2772;SDS011;1394;47.044;15.744;2023-02-24T01:09:16;30.33;;;9.03;;
2772;SDS011;1394;47.044;15.744;2023-02-24T01:11:47;34.50;;;11.50;;
2772;SDS011;1394;47.044;15.744;2023-02-24T01:14:47;30.77;;;9.13;;
2772;SDS011;1394;47.044;15.744;2023-02-24T01:17:15;31.07;;;10.00;;
2772;SDS011;1394;47.044;15.744;2023-02-24T01:19:44;31.60;;;10.13;;
2772;SDS011;1394;47.044;15.744;2023-02-24T01:22:14;32.07;;;10.60;;
2772;SDS011;1394;47.044;15.744;2023-02-24T01:24:42;31.57;;;9.70;;
2772;SDS011;1394;47.044;15.744;2023-02-24T01:27:09;33.07;;;11.17;;
2772;SDS011;1394;47.044;15.744;2023-02-24T01:29:37;34.57;;;12.33;;
2772;SDS011;1394;47.044;15.744;2023-02-24T01:32:04;31.53;;;9.77;;
2772;SDS011;1394;47.044;15.744;2023-02-24T01:34:31;31.80;;;10.50;;
2772;SDS011;1394;47.044;15.744;2023-02-24T01:37:00;33.40;;;10.50;;
2772;SDS011;1394;47.044;15.744;2023-02-24T01:39:28;31.40;;;9.80;;
2772;SDS011;1394;47.044;15.744;2023-02-24T01:41:55;31.63;;;9.00;;
2772;SDS011;1394;47.044;15.744;2023-02-24T01:47:11;31.70;;;10.03;;
2772;SDS011;1394;47.044;15.744;2023-02-24T01:49:41;32.27;;;11.17;;
2772;SDS011;1394;47.044;15.744;2023-02-24T01:52:11;32.80;;;11.27;;
2772;SDS011;1394;47.044;15.744;2023-02-24T01:54:43;32.17;;;11.00;;
2772;SDS011;1394;47.044;15.744;2023-02-24T01:57:12;31.50;;;9.27;;
2772;SDS011;1394;47.044;15.744;2023-02-24T01:59:43;32.40;;;11.00;;
2772;SDS011;1394;47.044;15.744;2023-02-24T02:02:12;32.03;;;10.67;;
2772;SDS011;1394;47.044;15.744;2023-02-24T02:04:40;33.30;;;11.03;;
2772;SDS011;1394;47.044;15.744;2023-02-24T02:07:09;31.73;;;9.90;;
2772;SDS011;1394;47.044;15.744;2023-02-24T02:09:38;31.23;;;9.80;;
2772;SDS011;1394;47.044;15.744;2023-02-24T02:12:07;33.47;;;10.90;;
2772;SDS011;1394;47.044;15.744;2023-02-24T02:14:34;34.53;;;11.97;;
2772;SDS011;1394;47.044;15.744;2023-02-24T02:17:05;32.33;;;10.80;;
2772;SDS011;1394;47.044;15.744;2023-02-24T02:19:42;33.80;;;10.90;;
2772;SDS011;1394;47.044;15.744;2023-02-24T02:22:27;30.77;;;8.97;;
2772;SDS011;1394;47.044;15.744;2023-02-24T02:25:00;32.60;;;10.60;;
2772;SDS011;1394;47.044;15.744;2023-02-24T02:27:42;31.40;;;9.63;;
2772;SDS011;1394;47.044;15.744;2023-02-24T02:33:25;33.10;;;10.80;;
2772;SDS011;1394;47.044;15.744;2023-02-24T02:35:58;33.03;;;10.93;;
2772;SDS011;1394;47.044;15.744;2023-02-24T02:38:31;33.23;;;11.70;;
2772;SDS011;1394;47.044;15.744;2023-02-24T02:41:02;32.17;;;10.87;;
2772;SDS011;1394;47.044;15.744;2023-02-24T02:43:35;32.87;;;10.13;;
2772;SDS011;1394;47.044;15.744;2023-02-24T02:46:05;32.50;;;10.37;;
2772;SDS011;1394;47.044;15.744;2023-02-24T02:48:39;31.90;;;10.67;;
2772;SDS011;1394;47.044;15.744;2023-02-24T02:51:09;33.20;;;11.70;;
2772;SDS011;1394;47.044;15.744;2023-02-24T02:53:38;32.70;;;10.27;;
2772;SDS011;1394;47.044;15.744;2023-02-24T02:56:10;31.17;;;9.50;;
2772;SDS011;1394;47.044;15.744;2023-02-24T02:58:40;32.37;;;10.53;;
2772;SDS011;1394;47.044;15.744;2023-02-24T03:01:11;31.90;;;10.37;;
2772;SDS011;1394;47.044;15.744;2023-02-24T03:03:42;30.67;;;9.27;;
2772;SDS011;1394;47.044;15.744;2023-02-24T03:06:13;31.50;;;9.40;;
2772;SDS011;1394;47.044;15.744;2023-02-24T03:08:42;31.10;;;9.60;;
2772;SDS011;1394;47.044;15.744;2023-02-24T03:11:13;31.10;;;9.87;;
2772;SDS011;1394;47.044;15.744;2023-02-24T03:13:41;32.13;;;10.30;;
2772;SDS011;1394;47.044;15.744;2023-02-24T03:16:10;31.07;;;9.53;;
2772;SDS011;1394;47.044;15.744;2023-02-24T03:18:42;32.23;;;9.70;;
2772;SDS011;1394;47.044;15.744;2023-02-24T03:21:17;32.30;;;10.40;;
2772;SDS011;1394;47.044;15.744;2023-02-24T03:23:48;31.07;;;9.13;;
2772;SDS011;1394;47.044;15.744;2023-02-24T03:26:18;30.80;;;9.37;;
2772;SDS011;1394;47.044;15.744;2023-02-24T03:28:52;30.73;;;9.20;;
2772;SDS011;1394;47.044;15.744;2023-02-24T03:31:24;32.33;;;10.67;;
2772;SDS011;1394;47.044;15.744;2023-02-24T03:33:55;31.40;;;9.70;;
2772;SDS011;1394;47.044;15.744;2023-02-24T03:36:26;32.60;;;11.10;;
2772;SDS011;1394;47.044;15.744;2023-02-24T03:38:53;31.97;;;10.07;;
2772;SDS011;1394;47.044;15.744;2023-02-24T03:41:22;30.80;;;9.47;;
2772;SDS011;1394;47.044;15.744;2023-02-24T03:43:54;31.50;;;9.37;;
2772;SDS011;1394;47.044;15.744;2023-02-24T03:46:22;30.40;;;8.80;;
2772;SDS011;1394;47.044;15.744;2023-02-24T03:48:51;30.30;;;8.90;;
2772;SDS011;1394;47.044;15.744;2023-02-24T03:51:21;31.37;;;9.50;;
2772;SDS011;1394;47.044;15.744;2023-02-24T03:53:54;30.60;;;9.17;;
2772;SDS011;1394;47.044;15.744;2023-02-24T03:56:25;31.13;;;9.60;;
2772;SDS011;1394;47.044;15.744;2023-02-24T03:59:00;30.27;;;8.90;;
2772;SDS011;1394;47.044;15.744;2023-02-24T04:01:35;30.80;;;9.17;;
2772;SDS011;1394;47.044;15.744;2023-02-24T04:04:09;29.77;;;8.57;;
2772;SDS011;1394;47.044;15.744;2023-02-24T04:06:39;33.50;;;11.90;;
2772;SDS011;1394;47.044;15.744;2023-02-24T04:09:15;32.80;;;11.30;;
2772;SDS011;1394;47.044;15.744;2023-02-24T04:11:45;31.60;;;10.20;;
2772;SDS011;1394;47.044;15.744;2023-02-24T04:14:16;31.70;;;10.00;;
2772;SDS011;1394;47.044;15.744;2023-02-24T04:16:49;32.07;;;10.20;;
2772;SDS011;1394;47.044;15.744;2023-02-24T04:19:18;30.80;;;9.37;;
2772;SDS011;1394;47.044;15.744;2023-02-24T04:21:48;32.60;;;10.20;;
2772;SDS011;1394;47.044;15.744;2023-02-24T04:24:17;32.60;;;11.57;;
2772;SDS011;1394;47.044;15.744;2023-02-24T04:26:47;31.80;;;10.90;;
2772;SDS011;1394;47.044;15.744;2023-02-24T04:29:16;31.43;;;10.40;;
2772;SDS011;1394;47.044;15.744;2023-02-24T04:31:49;32.23;;;10.50;;
2772;SDS011;1394;47.044;15.744;2023-02-24T04:34:18;31.93;;;9.57;;
2772;SDS011;1394;47.044;15.744;2023-02-24T04:36:48;31.60;;;9.80;;
2772;SDS011;1394;47.044;15.744;2023-02-24T04:39:17;30.57;;;9.10;;
2772;SDS011;1394;47.044;15.744;2023-02-24T04:41:45;32.07;;;9.87;;
2772;SDS011;1394;47.044;15.744;2023-02-24T04:44:13;31.43;;;9.63;;
2772;SDS011;1394;47.044;15.744;2023-02-24T04:46:42;32.30;;;9.77;;
2772;SDS011;1394;47.044;15.744;2023-02-24T04:49:09;29.90;;;9.20;;
2772;SDS011;1394;47.044;15.744;2023-02-24T04:51:37;32.10;;;11.60;;
2772;SDS011;1394;47.044;15.744;2023-02-24T04:54:06;32.80;;;10.87;;
2772;SDS011;1394;47.044;15.744;2023-02-24T04:56:35;30.07;;;8.80;;
2772;SDS011;1394;47.044;15.744;2023-02-24T04:59:04;31.47;;;9.63;;
2772;SDS011;1394;47.044;15.744;2023-02-24T05:01:34;32.20;;;9.90;;
2772;SDS011;1394;47.044;15.744;2023-02-24T05:04:03;31.27;;;9.80;;
2772;SDS011;1394;47.044;15.744;2023-02-24T05:06:31;31.07;;;9.60;;
2772;SDS011;1394;47.044;15.744;2023-02-24T05:08:58;30.67;;;9.50;;
2772;SDS011;1394;47.044;15.744;2023-02-24T05:11:36;31.60;;;10.00;;
2772;SDS011;1394;47.044;15.744;2023-02-24T05:14:07;31.50;;;10.23;;
2772;SDS011;1394;47.044;15.744;2023-02-24T05:16:34;32.00;;;10.90;;
2772;SDS011;1394;47.044;15.744;2023-02-24T05:19:01;33.63;;;13.03;;
2772;SDS011;1394;47.044;15.744;2023-02-24T05:21:46;31.70;;;10.00;;
2772;SDS011;1394;47.044;15.744;2023-02-24T05:24:13;31.00;;;9.90;;
2772;SDS011;1394;47.044;15.744;2023-02-24T05:26:42;33.33;;;11.47;;
2772;SDS011;1394;47.044;15.744;2023-02-24T05:29:10;32.10;;;10.70;;
2772;SDS011;1394;47.044;15.744;2023-02-24T05:31:38;31.13;;;10.00;;
2772;SDS011;1394;47.044;15.744;2023-02-24T05:34:06;32.73;;;10.80;;
2772;SDS011;1394;47.044;15.744;2023-02-24T05:36:34;32.63;;;10.20;;
2772;SDS011;1394;47.044;15.744;2023-02-24T05:39:04;31.90;;;10.70;;
2772;SDS011;1394;47.044;15.744;2023-02-24T05:41:33;31.47;;;9.67;;
2772;SDS011;1394;47.044;15.744;2023-02-24T05:44:06;31.07;;;9.67;;
2772;SDS011;1394;47.044;15.744;2023-02-24T05:46:34;34.40;;;9.67;;
2772;SDS011;1394;47.044;15.744;2023-02-24T05:49:03;32.60;;;10.90;;
2772;SDS011;1394;47.044;15.744;2023-02-24T05:51:34;31.50;;;9.43;;
2772;SDS011;1394;47.044;15.744;2023-02-24T05:54:09;31.23;;;9.50;;
2772;SDS011;1394;47.044;15.744;2023-02-24T05:56:38;31.10;;;9.30;;
2772;SDS011;1394;47.044;15.744;2023-02-24T05:59:08;29.93;;;9.13;;
2772;SDS011;1394;47.044;15.744;2023-02-24T06:01:37;31.23;;;9.27;;
2772;SDS011;1394;47.044;15.744;2023-02-24T06:04:05;30.33;;;8.53;;
2772;SDS011;1394;47.044;15.744;2023-02-24T06:06:35;32.00;;;9.03;;
2772;SDS011;1394;47.044;15.744;2023-02-24T06:09:02;29.83;;;8.70;;
2772;SDS011;1394;47.044;15.744;2023-02-24T06:11:34;30.57;;;9.23;;
2772;SDS011;1394;47.044;15.744;2023-02-24T06:14:02;32.83;;;11.33;;
2772;SDS011;1394;47.044;15.744;2023-02-24T06:16:35;34.60;;;13.30;;
2772;SDS011;1394;47.044;15.744;2023-02-24T06:19:04;33.20;;;10.90;;
2772;SDS011;1394;47.044;15.744;2023-02-24T06:21:33;32.80;;;12.30;;
2772;SDS011;1394;47.044;15.744;2023-02-24T06:24:00;36.27;;;14.00;;
2772;SDS011;1394;47.044;15.744;2023-02-24T06:26:30;34.60;;;13.43;;
2772;SDS011;1394;47.044;15.744;2023-02-24T06:29:00;33.00;;;11.20;;
2772;SDS011;1394;47.044;15.744;2023-02-24T06:31:29;32.23;;;10.33;;
2772;SDS011;1394;47.044;15.744;2023-02-24T06:33:58;33.10;;;11.67;;
2772;SDS011;1394;47.044;15.744;2023-02-24T06:36:25;32.60;;;10.90;;
2772;SDS011;1394;47.044;15.744;2023-02-24T06:38:53;30.80;;;9.57;;
2772;SDS011;1394;47.044;15.744;2023-02-24T06:41:20;30.30;;;9.73;;
2772;SDS011;1394;47.044;15.744;2023-02-24T06:43:53;34.57;;;13.67;;
2772;SDS011;1394;47.044;15.744;2023-02-24T06:46:20;31.60;;;10.27;;
2772;SDS011;1394;47.044;15.744;2023-02-24T06:48:50;32.60;;;10.57;;
2772;SDS011;1394;47.044;15.744;2023-02-24T06:51:20;32.50;;;10.20;;
2772;SDS011;1394;47.044;15.744;2023-02-24T06:53:54;32.97;;;11.17;;
2772;SDS011;1394;47.044;15.744;2023-02-24T06:56:21;34.27;;;12.40;;
2772;SDS011;1394;47.044;15.744;2023-02-24T06:58:50;31.50;;;10.20;;
2772;SDS011;1394;47.044;15.744;2023-02-24T07:01:21;31.90;;;9.30;;
2772;SDS011;1394;47.044;15.744;2023-02-24T07:03:50;31.47;;;10.67;;
2772;SDS011;1394;47.044;15.744;2023-02-24T07:06:37;32.27;;;10.10;;
2772;SDS011;1394;47.044;15.744;2023-02-24T07:09:06;31.53;;;9.60;;
2772;SDS011;1394;47.044;15.744;2023-02-24T07:11:34;30.97;;;9.33;;
2772;SDS011;1394;47.044;15.744;2023-02-24T07:14:05;31.50;;;9.63;;
2772;SDS011;1394;47.044;15.744;2023-02-24T07:16:35;31.97;;;10.63;;
2772;SDS011;1394;47.044;15.744;2023-02-24T07:19:05;31.17;;;9.40;;
2772;SDS011;1394;47.044;15.744;2023-02-24T07:21:37;30.77;;;9.37;;
2772;SDS011;1394;47.044;15.744;2023-02-24T07:24:06;31.50;;;9.23;;
2772;SDS011;1394;47.044;15.744;2023-02-24T07:26:34;30.67;;;9.10;;
2772;SDS011;1394;47.044;15.744;2023-02-24T07:29:06;31.33;;;9.63;;
2772;SDS011;1394;47.044;15.744;2023-02-24T07:31:33;31.83;;;10.10;;
2772;SDS011;1394;47.044;15.744;2023-02-24T07:34:01;32.03;;;10.17;;
2772;SDS011;1394;47.044;15.744;2023-02-24T07:36:30;31.67;;;10.83;;
2772;SDS011;1394;47.044;15.744;2023-02-24T07:39:16;30.93;;;9.80;;
2772;SDS011;1394;47.044;15.744;2023-02-24T07:41:44;31.93;;;9.70;;
2772;SDS011;1394;47.044;15.744;2023-02-24T07:44:13;32.07;;;9.50;;
2772;SDS011;1394;47.044;15.744;2023-02-24T07:46:41;30.53;;;9.60;;
2772;SDS011;1394;47.044;15.744;2023-02-24T07:49:11;31.20;;;10.17;;
2772;SDS011;1394;47.044;15.744;2023-02-24T07:51:42;31.43;;;10.23;;
2772;SDS011;1394;47.044;15.744;2023-02-24T07:54:09;30.50;;;8.87;;
2772;SDS011;1394;47.044;15.744;2023-02-24T07:56:42;29.77;;;8.43;;
2772;SDS011;1394;47.044;15.744;2023-02-24T07:59:20;32.80;;;10.33;;
2772;SDS011;1394;47.044;15.744;2023-02-24T08:01:51;30.77;;;8.90;;
2772;SDS011;1394;47.044;15.744;2023-02-24T08:04:21;32.83;;;9.83;;
2772;SDS011;1394;47.044;15.744;2023-02-24T08:06:52;31.00;;;10.13;;
2772;SDS011;1394;47.044;15.744;2023-02-24T08:09:28;31.30;;;8.93;;
2772;SDS011;1394;47.044;15.744;2023-02-24T08:12:29;31.27;;;9.17;;
2772;SDS011;1394;47.044;15.744;2023-02-24T08:15:00;30.90;;;9.30;;
2772;SDS011;1394;47.044;15.744;2023-02-24T08:17:34;31.17;;;9.83;;
2772;SDS011;1394;47.044;15.744;2023-02-24T08:20:04;30.10;;;8.80;;
2772;SDS011;1394;47.044;15.744;2023-02-24T08:22:48;30.30;;;9.17;;
2772;SDS011;1394;47.044;15.744;2023-02-24T08:25:17;30.03;;;7.70;;
2772;SDS011;1394;47.044;15.744;2023-02-24T08:27:48;32.63;;;8.47;;
2772;SDS011;1394;47.044;15.744;2023-02-24T08:30:20;31.13;;;9.30;;
2772;SDS011;1394;47.044;15.744;2023-02-24T08:32:49;31.07;;;8.50;;
2772;SDS011;1394;47.044;15.744;2023-02-24T08:35:21;30.57;;;8.70;;
2772;SDS011;1394;47.044;15.744;2023-02-24T08:37:50;30.20;;;8.20;;
2772;SDS011;1394;47.044;15.744;2023-02-24T08:40:19;30.90;;;8.97;;
2772;SDS011;1394;47.044;15.744;2023-02-24T08:43:07;30.37;;;8.37;;
2772;SDS011;1394;47.044;15.744;2023-02-24T08:45:46;30.80;;;9.10;;
2772;SDS011;1394;47.044;15.744;2023-02-24T08:48:16;30.93;;;8.90;;
2772;SDS011;1394;47.044;15.744;2023-02-24T08:50:50;30.63;;;8.67;;
2772;SDS011;1394;47.044;15.744;2023-02-24T08:53:18;30.73;;;8.60;;
2772;SDS011;1394;47.044;15.744;2023-02-24T08:55:45;30.70;;;9.27;;
2772;SDS011;1394;47.044;15.744;2023-02-24T08:58:17;31.10;;;8.67;;
2772;SDS011;1394;47.044;15.744;2023-02-24T09:00:51;31.30;;;9.57;;
2772;SDS011;1394;47.044;15.744;2023-02-24T09:03:21;31.63;;;9.33;;
2772;SDS011;1394;47.044;15.744;2023-02-24T09:05:58;30.00;;;8.47;;
2772;SDS011;1394;47.044;15.744;2023-02-24T09:08:26;31.30;;;8.73;;
2772;SDS011;1394;47.044;15.744;2023-02-24T09:10:57;30.80;;;8.63;;
2772;SDS011;1394;47.044;15.744;2023-02-24T09:13:26;29.87;;;8.77;;
2772;SDS011;1394;47.044;15.744;2023-02-24T09:15:59;30.57;;;8.90;;
2772;SDS011;1394;47.044;15.744;2023-02-24T09:18:26;30.77;;;8.83;;
2772;SDS011;1394;47.044;15.744;2023-02-24T09:21:06;30.63;;;8.73;;
2772;SDS011;1394;47.044;15.744;2023-02-24T09:23:56;29.27;;;7.60;;
2772;SDS011;1394;47.044;15.744;2023-02-24T09:26:25;30.57;;;8.20;;
2772;SDS011;1394;47.044;15.744;2023-02-24T09:28:58;32.57;;;9.40;;
2772;SDS011;1394;47.044;15.744;2023-02-24T09:31:35;29.70;;;8.43;;
2772;SDS011;1394;47.044;15.744;2023-02-24T09:34:19;31.00;;;8.80;;
2772;SDS011;1394;47.044;15.744;2023-02-24T09:36:54;30.60;;;8.67;;
2772;SDS011;1394;47.044;15.744;2023-02-24T09:39:27;29.70;;;8.60;;
2772;SDS011;1394;47.044;15.744;2023-02-24T09:41:56;31.17;;;9.50;;
2772;SDS011;1394;47.044;15.744;2023-02-24T09:44:51;29.50;;;7.97;;
2772;SDS011;1394;47.044;15.744;2023-02-24T09:47:21;30.17;;;8.23;;
2772;SDS011;1394;47.044;15.744;2023-02-24T09:50:09;32.00;;;10.97;;
2772;SDS011;1394;47.044;15.744;2023-02-24T09:52:38;31.00;;;9.00;;
2772;SDS011;1394;47.044;15.744;2023-02-24T09:55:12;29.57;;;8.60;;
2772;SDS011;1394;47.044;15.744;2023-02-24T09:57:50;29.77;;;8.00;;
2772;SDS011;1394;47.044;15.744;2023-02-24T10:00:52;32.80;;;8.40;;
2772;SDS011;1394;47.044;15.744;2023-02-24T10:03:22;30.10;;;8.27;;
2772;SDS011;1394;47.044;15.744;2023-02-24T10:06:10;29.90;;;7.83;;
2772;SDS011;1394;47.044;15.744;2023-02-24T10:08:40;29.43;;;7.70;;
2772;SDS011;1394;47.044;15.744;2023-02-24T10:11:08;29.63;;;8.03;;
2772;SDS011;1394;47.044;15.744;2023-02-24T10:13:36;29.30;;;7.10;;
2772;SDS011;1394;47.044;15.744;2023-02-24T10:16:09;30.80;;;7.67;;
2772;SDS011;1394;47.044;15.744;2023-02-24T10:18:38;29.10;;;7.33;;
2772;SDS011;1394;47.044;15.744;2023-02-24T10:21:13;29.00;;;7.03;;
2772;SDS011;1394;47.044;15.744;2023-02-24T10:23:47;28.77;;;6.80;;
2772;SDS011;1394;47.044;15.744;2023-02-24T10:26:22;29.77;;;6.60;;
2772;SDS011;1394;47.044;15.744;2023-02-24T10:28:57;29.17;;;6.37;;
2772;SDS011;1394;47.044;15.744;2023-02-24T10:31:36;29.00;;;5.90;;
2772;SDS011;1394;47.044;15.744;2023-02-24T10:34:07;28.00;;;5.77;;
2772;SDS011;1394;47.044;15.744;2023-02-24T10:36:36;28.57;;;5.97;;
2772;SDS011;1394;47.044;15.744;2023-02-24T10:39:07;29.00;;;5.97;;
2772;SDS011;1394;47.044;15.744;2023-02-24T10:41:41;28.60;;;6.10;;
2772;SDS011;1394;47.044;15.744;2023-02-24T10:44:09;28.77;;;6.40;;
2772;SDS011;1394;47.044;15.744;2023-02-24T10:46:41;28.27;;;5.50;;
2772;SDS011;1394;47.044;15.744;2023-02-24T10:49:10;28.00;;;5.20;;
2772;SDS011;1394;47.044;15.744;2023-02-24T10:51:41;27.90;;;5.13;;
2772;SDS011;1394;47.044;15.744;2023-02-24T10:54:11;29.30;;;5.53;;
2772;SDS011;1394;47.044;15.744;2023-02-24T10:56:58;28.47;;;5.20;;
2772;SDS011;1394;47.044;15.744;2023-02-24T10:59:41;28.37;;;5.37;;
2772;SDS011;1394;47.044;15.744;2023-02-24T11:02:24;28.23;;;5.17;;
2772;SDS011;1394;47.044;15.744;2023-02-24T11:04:57;27.77;;;5.17;;
2772;SDS011;1394;47.044;15.744;2023-02-24T11:08:02;29.30;;;5.70;;
2772;SDS011;1394;47.044;15.744;2023-02-24T11:10:31;28.40;;;5.47;;
2772;SDS011;1394;47.044;15.744;2023-02-24T11:13:17;29.20;;;5.70;;
2772;SDS011;1394;47.044;15.744;2023-02-24T11:16:06;28.80;;;5.60;;
2772;SDS011;1394;47.044;15.744;2023-02-24T11:18:52;28.30;;;5.30;;
2772;SDS011;1394;47.044;15.744;2023-02-24T11:21:22;28.47;;;5.07;;
2772;SDS011;1394;47.044;15.744;2023-02-24T11:23:50;27.57;;;4.63;;
2772;SDS011;1394;47.044;15.744;2023-02-24T11:26:20;28.37;;;5.10;;
2772;SDS011;1394;47.044;15.744;2023-02-24T11:28:59;27.50;;;4.10;;
2772;SDS011;1394;47.044;15.744;2023-02-24T11:31:36;28.10;;;4.90;;
2772;SDS011;1394;47.044;15.744;2023-02-24T11:34:08;28.17;;;4.50;;
2772;SDS011;1394;47.044;15.744;2023-02-24T11:36:39;27.40;;;4.37;;
2772;SDS011;1394;47.044;15.744;2023-02-24T11:39:18;27.70;;;4.17;;
2772;SDS011;1394;47.044;15.744;2023-02-24T11:41:51;27.17;;;3.97;;
2772;SDS011;1394;47.044;15.744;2023-02-24T11:44:20;27.43;;;4.37;;
2772;SDS011;1394;47.044;15.744;2023-02-24T11:46:51;27.93;;;4.00;;
2772;SDS011;1394;47.044;15.744;2023-02-24T11:49:26;28.67;;;4.50;;
2772;SDS011;1394;47.044;15.744;2023-02-24T11:51:53;27.70;;;4.00;;
2772;SDS011;1394;47.044;15.744;2023-02-24T11:54:24;27.70;;;4.07;;
2772;SDS011;1394;47.044;15.744;2023-02-24T11:56:52;27.60;;;4.30;;
2772;SDS011;1394;47.044;15.744;2023-02-24T11:59:27;27.70;;;4.10;;
2772;SDS011;1394;47.044;15.744;2023-02-24T12:01:56;27.70;;;4.00;;
2772;SDS011;1394;47.044;15.744;2023-02-24T12:04:27;28.37;;;4.27;;
2772;SDS011;1394;47.044;15.744;2023-02-24T12:06:58;30.03;;;4.60;;
2772;SDS011;1394;47.044;15.744;2023-02-24T12:09:27;28.07;;;4.53;;
2772;SDS011;1394;47.044;15.744;2023-02-24T12:11:58;28.83;;;3.93;;
2772;SDS011;1394;47.044;15.744;2023-02-24T12:14:31;28.00;;;4.27;;
2772;SDS011;1394;47.044;15.744;2023-02-24T12:17:01;28.33;;;3.90;;
2772;SDS011;1394;47.044;15.744;2023-02-24T12:19:34;28.63;;;4.77;;
2772;SDS011;1394;47.044;15.744;2023-02-24T12:22:05;28.47;;;4.80;;
2772;SDS011;1394;47.044;15.744;2023-02-24T12:24:35;28.57;;;4.90;;
2772;SDS011;1394;47.044;15.744;2023-02-24T12:27:12;28.57;;;4.90;;
2772;SDS011;1394;47.044;15.744;2023-02-24T12:30:02;27.63;;;3.97;;
2772;SDS011;1394;47.044;15.744;2023-02-24T12:32:39;28.33;;;4.37;;
2772;SDS011;1394;47.044;15.744;2023-02-24T12:35:20;28.37;;;4.40;;
2772;SDS011;1394;47.044;15.744;2023-02-24T12:37:53;28.50;;;4.40;;
2772;SDS011;1394;47.044;15.744;2023-02-24T12:40:27;28.07;;;4.20;;
2772;SDS011;1394;47.044;15.744;2023-02-24T12:42:57;28.37;;;4.50;;
2772;SDS011;1394;47.044;15.744;2023-02-24T12:45:32;28.43;;;4.60;;
2772;SDS011;1394;47.044;15.744;2023-02-24T12:48:03;28.63;;;4.37;;
2772;SDS011;1394;47.044;15.744;2023-02-24T12:50:41;28.10;;;4.70;;
2772;SDS011;1394;47.044;15.744;2023-02-24T12:53:14;28.50;;;4.70;;
2772;SDS011;1394;47.044;15.744;2023-02-24T12:55:46;28.77;;;4.87;;
2772;SDS011;1394;47.044;15.744;2023-02-24T12:58:20;27.80;;;4.20;;
2772;SDS011;1394;47.044;15.744;2023-02-24T13:00:53;28.20;;;5.00;;
2772;SDS011;1394;47.044;15.744;2023-02-24T13:03:41;28.90;;;4.40;;
2772;SDS011;1394;47.044;15.744;2023-02-24T13:06:19;27.80;;;4.40;;
2772;SDS011;1394;47.044;15.744;2023-02-24T13:08:50;28.07;;;4.60;;
2772;SDS011;1394;47.044;15.744;2023-02-24T13:11:24;28.57;;;4.80;;
2772;SDS011;1394;47.044;15.744;2023-02-24T13:13:57;28.67;;;4.93;;
2772;SDS011;1394;47.044;15.744;2023-02-24T13:16:26;28.67;;;4.67;;
2772;SDS011;1394;47.044;15.744;2023-02-24T13:19:06;27.97;;;4.10;;
2772;SDS011;1394;47.044;15.744;2023-02-24T13:21:43;27.90;;;4.43;;
2772;SDS011;1394;47.044;15.744;2023-02-24T13:24:20;28.10;;;4.30;;
2772;SDS011;1394;47.044;15.744;2023-02-24T13:26:48;28.90;;;4.80;;
2772;SDS011;1394;47.044;15.744;2023-02-24T13:29:18;28.30;;;4.87;;
2772;SDS011;1394;47.044;15.744;2023-02-24T13:31:45;29.07;;;5.07;;
2772;SDS011;1394;47.044;15.744;2023-02-24T13:34:27;30.50;;;4.63;;
2772;SDS011;1394;47.044;15.744;2023-02-24T13:36:59;28.20;;;4.90;;
2772;SDS011;1394;47.044;15.744;2023-02-24T13:39:30;28.20;;;4.13;;
2772;SDS011;1394;47.044;15.744;2023-02-24T13:42:04;28.30;;;4.60;;
2772;SDS011;1394;47.044;15.744;2023-02-24T13:44:32;28.73;;;4.60;;
2772;SDS011;1394;47.044;15.744;2023-02-24T13:49:42;28.17;;;4.77;;
2772;SDS011;1394;47.044;15.744;2023-02-24T13:52:21;28.30;;;4.50;;
2772;SDS011;1394;47.044;15.744;2023-02-24T13:55:03;28.00;;;4.60;;
2772;SDS011;1394;47.044;15.744;2023-02-24T13:57:39;28.60;;;4.77;;
2772;SDS011;1394;47.044;15.744;2023-02-24T14:00:10;29.60;;;4.87;;
2772;SDS011;1394;47.044;15.744;2023-02-24T14:02:46;29.53;;;4.50;;
2772;SDS011;1394;47.044;15.744;2023-02-24T14:05:18;28.90;;;5.13;;
2772;SDS011;1394;47.044;15.744;2023-02-24T14:07:48;28.80;;;5.00;;
2772;SDS011;1394;47.044;15.744;2023-02-24T14:10:20;28.07;;;4.80;;
2772;SDS011;1394;47.044;15.744;2023-02-24T14:12:49;28.50;;;5.00;;
2772;SDS011;1394;47.044;15.744;2023-02-24T14:15:18;28.30;;;5.20;;
2772;SDS011;1394;47.044;15.744;2023-02-24T14:17:53;28.27;;;4.97;;
2772;SDS011;1394;47.044;15.744;2023-02-24T14:20:21;28.60;;;4.80;;
2772;SDS011;1394;47.044;15.744;2023-02-24T14:22:51;28.70;;;4.90;;
2772;SDS011;1394;47.044;15.744;2023-02-24T14:25:21;28.97;;;5.30;;
2772;SDS011;1394;47.044;15.744;2023-02-24T14:27:49;29.17;;;5.20;;
2772;SDS011;1394;47.044;15.744;2023-02-24T14:30:26;28.90;;;4.90;;
2772;SDS011;1394;47.044;15.744;2023-02-24T14:32:55;28.60;;;4.53;;
2772;SDS011;1394;47.044;15.744;2023-02-24T14:35:26;29.30;;;4.97;;
2772;SDS011;1394;47.044;15.744;2023-02-24T14:37:57;28.97;;;5.10;;
2772;SDS011;1394;47.044;15.744;2023-02-24T14:40:25;29.10;;;5.63;;
2772;SDS011;1394;47.044;15.744;2023-02-24T14:42:53;29.07;;;5.27;;
2772;SDS011;1394;47.044;15.744;2023-02-24T14:45:23;28.90;;;5.07;;
2772;SDS011;1394;47.044;15.744;2023-02-24T14:47:51;29.43;;;5.60;;
2772;SDS011;1394;47.044;15.744;2023-02-24T14:50:20;29.90;;;5.53;;
2772;SDS011;1394;47.044;15.744;2023-02-24T14:52:51;28.20;;;4.80;;
2772;SDS011;1394;47.044;15.744;2023-02-24T14:55:21;29.10;;;5.10;;
2772;SDS011;1394;47.044;15.744;2023-02-24T14:57:51;29.00;;;5.00;;
2772;SDS011;1394;47.044;15.744;2023-02-24T15:00:22;32.80;;;5.53;;
2772;SDS011;1394;47.044;15.744;2023-02-24T15:02:52;29.23;;;4.67;;
2772;SDS011;1394;47.044;15.744;2023-02-24T15:05:20;28.90;;;5.03;;
2772;SDS011;1394;47.044;15.744;2023-02-24T15:07:48;28.47;;;5.33;;
2772;SDS011;1394;47.044;15.744;2023-02-24T15:10:22;29.30;;;5.50;;
2772;SDS011;1394;47.044;15.744;2023-02-24T15:12:50;30.73;;;5.60;;
2772;SDS011;1394;47.044;15.744;2023-02-24T15:15:21;30.00;;;5.70;;
2772;SDS011;1394;47.044;15.744;2023-02-24T15:17:52;29.47;;;5.97;;
2772;SDS011;1394;47.044;15.744;2023-02-24T15:20:24;29.03;;;5.13;;